createdAt,value
2019-02-27T00:01:00.420Z,18.30
2019-02-27T00:03:29.715Z,17.03
2019-02-27T00:05:58.591Z,16.13
2019-02-27T00:08:27.568Z,16.67
2019-02-27T00:10:59.735Z,17.00
2019-02-27T00:13:31.174Z,16.80
2019-02-27T00:16:00.398Z,17.50
2019-02-27T00:18:29.682Z,16.83
2019-02-27T00:20:58.976Z,16.83
2019-02-27T00:23:28.088Z,17.10
2019-02-27T00:25:57.520Z,17.00
2019-02-27T00:28:26.997Z,16.13
2019-02-27T00:30:56.147Z,17.07
2019-02-27T00:33:27.943Z,17.37
2019-02-27T00:35:56.410Z,16.50
2019-02-27T00:38:25.816Z,16.03
2019-02-27T00:40:55.409Z,16.07
2019-02-27T00:43:26.001Z,16.27
2019-02-27T00:45:55.231Z,15.07
2019-02-27T00:48:26.196Z,15.33
2019-02-27T00:50:55.052Z,15.83
2019-02-27T00:53:24.520Z,15.60
2019-02-27T00:55:54.160Z,15.97
2019-02-27T00:58:26.852Z,15.53
2019-02-27T01:00:53.521Z,15.40
2019-02-27T01:03:26.003Z,15.33
2019-02-27T01:05:53.360Z,15.17
2019-02-27T01:08:25.029Z,14.57
2019-02-27T01:10:53.033Z,15.10
2019-02-27T01:13:22.109Z,14.30
2019-02-27T01:15:50.851Z,15.07
2019-02-27T01:18:20.455Z,14.43
2019-02-27T01:20:49.542Z,14.83
2019-02-27T01:23:18.814Z,14.10
2019-02-27T01:25:47.863Z,14.47
2019-02-27T01:28:17.166Z,14.93
2019-02-27T01:30:46.843Z,13.57
2019-02-27T01:33:15.945Z,14.23
2019-02-27T01:35:45.096Z,14.57
2019-02-27T01:38:13.933Z,13.63
2019-02-27T01:40:43.594Z,13.27
2019-02-27T01:43:12.631Z,14.63
2019-02-27T01:45:41.407Z,14.13
2019-02-27T01:48:10.241Z,14.17
2019-02-27T01:50:40.061Z,14.13
2019-02-27T01:53:09.851Z,14.33
2019-02-27T01:55:38.746Z,14.30
2019-02-27T01:58:27.505Z,14.27
2019-02-27T02:00:56.834Z,13.57
2019-02-27T02:03:26.242Z,14.03
2019-02-27T02:05:58.767Z,14.43
2019-02-27T02:08:26.065Z,12.83
2019-02-27T02:10:58.930Z,13.07
2019-02-27T02:13:32.306Z,13.50
2019-02-27T02:16:19.546Z,13.10
2019-02-27T02:22:21.931Z,11.83
2019-02-27T02:25:47.361Z,13.60
2019-02-27T02:28:57.564Z,14.37
2019-02-27T02:31:52.592Z,13.83
2019-02-27T02:35:06.163Z,14.23
2019-02-27T02:38:14.850Z,13.27
2019-02-27T02:41:25.166Z,12.70
2019-02-27T02:44:27.860Z,12.07
2019-02-27T02:47:21.017Z,13.00
2019-02-27T02:50:24.233Z,13.13
2019-02-27T02:53:33.802Z,12.60
2019-02-27T02:56:45.750Z,13.13
2019-02-27T02:59:47.287Z,11.70
2019-02-27T03:02:37.763Z,12.00
2019-02-27T03:05:59.751Z,11.87
2019-02-27T03:08:55.043Z,12.00
2019-02-27T03:12:03.249Z,11.70
2019-02-27T03:14:39.215Z,10.77
2019-02-27T03:17:34.573Z,9.77
2019-02-27T03:20:33.622Z,10.63
2019-02-27T03:23:29.776Z,10.37
2019-02-27T03:26:51.881Z,9.43
2019-02-27T03:29:54.571Z,8.93
2019-02-27T03:33:00.225Z,8.97
2019-02-27T03:36:14.340Z,9.50
2019-02-27T03:39:15.534Z,9.33
2019-02-27T03:42:26.889Z,8.37
2019-02-27T03:45:09.750Z,8.47
2019-02-27T03:48:07.464Z,8.23
2019-02-27T03:50:53.190Z,8.17
2019-02-27T03:53:37.514Z,8.43
2019-02-27T03:56:44.636Z,8.00
2019-02-27T03:59:58.693Z,8.23
2019-02-27T04:02:49.198Z,7.33
2019-02-27T04:05:55.735Z,7.67
2019-02-27T04:08:56.529Z,7.90
2019-02-27T04:11:26.026Z,7.93
2019-02-27T04:14:02.971Z,8.30
2019-02-27T04:16:29.286Z,7.73
2019-02-27T04:19:02.936Z,8.43
2019-02-27T04:21:28.895Z,7.90
2019-02-27T04:23:58.466Z,7.20
2019-02-27T04:26:27.255Z,7.93
2019-02-27T04:28:56.619Z,7.97
2019-02-27T04:31:29.587Z,8.17
2019-02-27T04:33:59.596Z,7.97
2019-02-27T04:36:27.355Z,8.40
2019-02-27T04:38:56.517Z,7.77
2019-02-27T04:41:25.368Z,9.20
2019-02-27T04:43:54.691Z,8.70
2019-02-27T04:46:24.037Z,8.30
2019-02-27T04:48:53.148Z,8.63
2019-02-27T04:51:23.422Z,8.67
2019-02-27T04:53:52.870Z,9.40
2019-02-27T04:56:23.389Z,9.20
2019-02-27T04:58:52.679Z,8.40
2019-02-27T05:01:21.824Z,8.80
2019-02-27T05:03:51.258Z,9.63
2019-02-27T05:06:20.468Z,9.03
2019-02-27T05:08:50.049Z,9.63
2019-02-27T05:11:19.149Z,9.63
2019-02-27T05:13:48.206Z,10.10
2019-02-27T05:16:17.850Z,10.17
2019-02-27T05:18:46.713Z,9.43
2019-02-27T05:21:18.927Z,9.80
2019-02-27T05:23:46.432Z,9.50
2019-02-27T05:26:15.288Z,9.53
2019-02-27T05:28:44.925Z,9.20
2019-02-27T05:31:18.183Z,8.83
2019-02-27T05:33:44.798Z,8.87
2019-02-27T05:36:14.382Z,9.67
2019-02-27T05:38:43.624Z,9.43
2019-02-27T05:41:12.949Z,8.50
2019-02-27T05:43:47.724Z,8.97
2019-02-27T05:46:15.014Z,8.83
2019-02-27T05:48:44.208Z,9.53
2019-02-27T05:51:13.041Z,8.33
2019-02-27T05:53:42.160Z,9.30
2019-02-27T05:56:15.580Z,9.47
2019-02-27T05:58:41.465Z,9.73
2019-02-27T06:01:11.110Z,9.40
2019-02-27T06:03:40.404Z,11.00
2019-02-27T06:06:11.897Z,10.30
2019-02-27T06:08:41.041Z,9.80
2019-02-27T06:11:10.404Z,8.57
2019-02-27T06:13:39.594Z,9.17
2019-02-27T06:16:09.300Z,9.47
2019-02-27T06:18:38.801Z,10.27
2019-02-27T06:21:07.867Z,9.37
2019-02-27T06:23:37.891Z,9.67
2019-02-27T06:26:07.362Z,10.23
2019-02-27T06:28:36.423Z,9.47
2019-02-27T06:31:05.477Z,11.07
2019-02-27T06:33:34.267Z,10.87
2019-02-27T06:36:05.352Z,11.17
2019-02-27T06:38:33.886Z,10.20
2019-02-27T06:41:03.317Z,11.63
2019-02-27T06:43:32.648Z,11.13
2019-02-27T06:46:02.273Z,10.90
2019-02-27T06:48:31.340Z,12.37
2019-02-27T06:51:00.971Z,11.67
2019-02-27T06:53:30.458Z,11.83
2019-02-27T06:56:02.808Z,11.77
2019-02-27T06:58:30.286Z,12.10
2019-02-27T07:00:59.818Z,11.77
2019-02-27T07:03:32.121Z,12.10
2019-02-27T07:06:00.328Z,11.10
2019-02-27T07:08:29.747Z,11.63
2019-02-27T07:11:10.471Z,11.23
2019-02-27T07:13:30.033Z,12.00
2019-02-27T07:15:59.389Z,11.70
2019-02-27T07:18:28.362Z,11.17
2019-02-27T07:20:58.289Z,11.87
2019-02-27T07:23:28.305Z,11.97
2019-02-27T07:25:58.138Z,12.30
2019-02-27T07:28:27.462Z,11.80
2019-02-27T07:30:56.611Z,11.83
2019-02-27T07:33:26.222Z,14.27
2019-02-27T07:35:55.030Z,15.33
2019-02-27T07:38:25.588Z,16.77
2019-02-27T07:40:54.624Z,16.73
2019-02-27T07:43:24.181Z,17.00
2019-02-27T07:45:54.335Z,17.80
2019-02-27T07:48:23.921Z,16.47
2019-02-27T07:50:53.464Z,16.93
2019-02-27T07:53:22.560Z,17.57
2019-02-27T07:55:51.713Z,16.33
2019-02-27T07:58:20.552Z,16.53
2019-02-27T08:00:49.849Z,17.33
2019-02-27T08:03:19.620Z,17.67
2019-02-27T08:05:48.968Z,17.93
2019-02-27T08:08:17.878Z,17.47
2019-02-27T08:10:47.553Z,18.30
2019-02-27T08:13:16.897Z,18.33
2019-02-27T08:15:46.343Z,20.47
2019-02-27T08:18:15.387Z,19.90
2019-02-27T08:20:44.975Z,20.40
2019-02-27T08:23:15.536Z,21.30
2019-02-27T08:25:44.847Z,22.53
2019-02-27T08:28:14.514Z,21.00
2019-02-27T08:30:43.582Z,21.57
2019-02-27T08:33:12.769Z,22.17
2019-02-27T08:35:43.919Z,23.57
2019-02-27T08:38:13.497Z,23.63
2019-02-27T08:40:43.243Z,22.17
2019-02-27T08:43:12.887Z,23.27
2019-02-27T08:45:42.798Z,22.37
2019-02-27T08:48:17.094Z,21.57
2019-02-27T08:50:42.884Z,22.30
2019-02-27T08:53:12.017Z,20.50
2019-02-27T08:55:41.261Z,21.97
2019-02-27T08:58:10.416Z,22.83
2019-02-27T09:00:39.526Z,21.93
2019-02-27T09:03:08.721Z,22.10
2019-02-27T09:05:38.607Z,21.40
2019-02-27T09:08:10.093Z,22.30
2019-02-27T09:10:38.832Z,22.03
2019-02-27T09:13:08.071Z,21.77
2019-02-27T09:15:37.518Z,22.00
2019-02-27T09:18:06.829Z,21.50
2019-02-27T09:20:36.132Z,21.33
2019-02-27T09:23:05.857Z,21.63
2019-02-27T09:25:35.810Z,19.53
2019-02-27T09:28:08.999Z,18.60
2019-02-27T09:30:35.644Z,20.20
2019-02-27T09:33:04.943Z,20.57
2019-02-27T09:35:38.501Z,19.43
2019-02-27T09:38:06.174Z,20.00
2019-02-27T09:40:38.541Z,18.00
2019-02-27T09:43:06.336Z,18.33
2019-02-27T09:45:35.904Z,17.67
2019-02-27T09:48:05.480Z,17.77
2019-02-27T09:50:39.300Z,17.83
2019-02-27T09:53:08.626Z,16.63
2019-02-27T09:55:38.443Z,18.13
2019-02-27T09:58:11.198Z,17.53
2019-02-27T10:00:59.578Z,18.17
2019-02-27T10:03:30.701Z,17.67
2019-02-27T10:05:59.931Z,18.63
2019-02-27T10:08:30.394Z,18.57
2019-02-27T10:11:02.779Z,19.57
2019-02-27T10:13:32.520Z,18.87
2019-02-27T10:16:03.622Z,18.27
2019-02-27T10:18:32.817Z,20.37
2019-02-27T10:21:02.535Z,18.73
2019-02-27T10:23:31.615Z,20.30
2019-02-27T10:26:02.878Z,19.33
2019-02-27T10:28:32.079Z,18.43
2019-02-27T10:31:01.239Z,18.87
2019-02-27T10:33:30.482Z,19.67
2019-02-27T10:36:03.250Z,18.93
2019-02-27T10:38:31.926Z,19.67
2019-02-27T10:41:02.925Z,18.70
2019-02-27T10:43:39.086Z,19.83
2019-02-27T10:46:07.977Z,18.57
2019-02-27T10:48:36.964Z,19.00
2019-02-27T10:51:09.532Z,17.67
2019-02-27T10:53:37.196Z,18.27
2019-02-27T10:56:06.392Z,19.20
2019-02-27T10:58:35.336Z,18.30
2019-02-27T11:01:04.658Z,18.23
2019-02-27T11:03:33.869Z,18.53
2019-02-27T11:06:03.202Z,17.67
2019-02-27T11:08:36.437Z,17.93
2019-02-27T11:11:16.457Z,18.87
2019-02-27T11:13:40.820Z,18.50
2019-02-27T11:16:15.553Z,17.43
2019-02-27T11:18:45.191Z,17.60
2019-02-27T11:21:14.943Z,16.77
2019-02-27T11:23:44.863Z,18.40
2019-02-27T11:26:17.660Z,17.40
2019-02-27T11:28:47.749Z,16.93
2019-02-27T11:31:19.928Z,17.00
2019-02-27T11:33:52.868Z,17.93
2019-02-27T11:36:22.992Z,16.37
2019-02-27T11:38:56.664Z,17.07
2019-02-27T11:41:26.447Z,16.37
2019-02-27T11:43:57.719Z,16.27
2019-02-27T11:46:27.048Z,16.53
2019-02-27T11:48:57.024Z,16.60
2019-02-27T11:51:28.454Z,16.23
2019-02-27T11:54:01.088Z,14.67
2019-02-27T11:56:32.302Z,14.83
2019-02-27T11:59:01.411Z,15.47
2019-02-27T12:01:32.153Z,14.90
2019-02-27T12:04:02.705Z,14.93
2019-02-27T12:06:31.922Z,15.20
2019-02-27T12:09:00.890Z,13.90
2019-02-27T12:11:30.430Z,15.37
2019-02-27T12:13:59.678Z,15.73
2019-02-27T12:16:29.048Z,14.97
2019-02-27T12:18:58.784Z,14.67
2019-02-27T12:21:28.088Z,14.47
2019-02-27T12:23:57.374Z,13.57
2019-02-27T12:26:26.588Z,14.23
2019-02-27T12:28:58.269Z,14.20
2019-02-27T12:31:29.127Z,15.00
2019-02-27T12:34:02.437Z,14.87
2019-02-27T12:36:30.006Z,14.73
2019-02-27T12:38:59.440Z,14.87
2019-02-27T12:41:30.013Z,13.80
2019-02-27T12:43:59.851Z,13.63
2019-02-27T12:46:28.844Z,14.67
2019-02-27T12:48:57.733Z,13.23
2019-02-27T12:51:26.567Z,12.63
2019-02-27T12:53:55.481Z,13.17
2019-02-27T12:56:25.958Z,12.70
2019-02-27T12:58:58.313Z,11.77
2019-02-27T13:01:26.171Z,13.33
2019-02-27T13:03:56.837Z,11.87
2019-02-27T13:06:26.101Z,11.70
2019-02-27T13:08:55.953Z,12.90
2019-02-27T13:11:25.365Z,12.60
2019-02-27T13:13:54.234Z,12.03
2019-02-27T13:16:24.035Z,13.00
2019-02-27T13:18:53.387Z,14.00
2019-02-27T13:21:22.209Z,14.57
2019-02-27T13:23:51.346Z,13.27
2019-02-27T13:26:20.427Z,13.43
2019-02-27T13:28:49.719Z,13.73
2019-02-27T13:31:19.260Z,12.70
2019-02-27T13:33:48.371Z,13.13
2019-02-27T13:36:17.903Z,11.73
2019-02-27T13:38:49.537Z,12.67
2019-02-27T13:41:18.616Z,12.50
2019-02-27T13:43:48.284Z,13.73
2019-02-27T13:46:20.185Z,14.00
2019-02-27T13:48:49.418Z,13.73
2019-02-27T13:51:18.798Z,13.33
2019-02-27T13:53:47.729Z,13.50
2019-02-27T13:56:17.164Z,13.10
2019-02-27T13:58:46.671Z,14.27
2019-02-27T14:01:16.150Z,14.30
2019-02-27T14:03:45.609Z,14.00
2019-02-27T14:06:16.011Z,13.37
2019-02-27T14:08:45.347Z,14.43
2019-02-27T14:11:14.849Z,14.63
2019-02-27T14:13:44.880Z,14.13
2019-02-27T14:16:14.093Z,14.53
2019-02-27T14:18:43.784Z,15.47
2019-02-27T14:21:14.862Z,15.30
2019-02-27T14:23:46.869Z,16.10
2019-02-27T14:26:14.492Z,14.27
2019-02-27T14:28:44.188Z,14.40
2019-02-27T14:31:13.350Z,14.20
2019-02-27T14:33:42.191Z,14.03
2019-02-27T14:36:11.361Z,14.33
2019-02-27T14:38:40.279Z,13.03
2019-02-27T14:41:11.147Z,13.50
2019-02-27T14:43:40.147Z,14.70
2019-02-27T14:46:11.507Z,14.33
2019-02-27T14:48:40.357Z,13.83
2019-02-27T14:51:11.212Z,13.93
2019-02-27T14:53:40.737Z,13.47
2019-02-27T14:56:10.264Z,13.50
2019-02-27T14:58:39.530Z,13.87
2019-02-27T15:01:11.835Z,14.03
2019-02-27T15:03:41.042Z,14.80
2019-02-27T15:06:10.532Z,13.60
2019-02-27T15:08:39.722Z,13.97
2019-02-27T15:11:08.774Z,13.60
2019-02-27T15:13:37.894Z,14.83
2019-02-27T15:16:07.182Z,14.10
2019-02-27T15:18:36.505Z,15.10
2019-02-27T15:21:05.463Z,14.77
2019-02-27T15:23:34.630Z,14.50
2019-02-27T15:26:03.692Z,13.63
2019-02-27T15:28:33.261Z,14.33
2019-02-27T15:31:02.855Z,13.83
2019-02-27T15:33:32.242Z,14.23
2019-02-27T15:36:01.235Z,14.80
2019-02-27T15:38:30.240Z,14.20
2019-02-27T15:41:02.401Z,13.93
2019-02-27T15:43:29.965Z,13.90
2019-02-27T15:45:59.186Z,14.17
2019-02-27T15:48:28.098Z,13.83
2019-02-27T15:50:57.466Z,13.73
2019-02-27T15:53:27.228Z,15.17
2019-02-27T15:55:56.452Z,13.83
2019-02-27T15:58:28.121Z,14.20
2019-02-27T16:00:56.271Z,14.23
2019-02-27T16:03:25.328Z,14.23
2019-02-27T16:05:54.979Z,13.27
2019-02-27T16:08:26.011Z,12.80
2019-02-27T16:10:55.305Z,14.33
2019-02-27T16:13:24.421Z,12.97
2019-02-27T16:15:53.632Z,13.33
2019-02-27T16:18:23.060Z,14.03
2019-02-27T16:20:52.529Z,13.53
2019-02-27T16:23:21.424Z,14.10
2019-02-27T16:25:54.112Z,13.80
2019-02-27T16:28:21.115Z,13.00
2019-02-27T16:30:50.213Z,14.27
2019-02-27T16:33:23.435Z,13.47
2019-02-27T16:35:49.583Z,14.57
2019-02-27T16:38:18.692Z,15.37
2019-02-27T16:40:52.074Z,14.20
2019-02-27T16:43:18.872Z,14.13
2019-02-27T16:45:48.492Z,13.77
2019-02-27T16:48:17.343Z,14.27
2019-02-27T16:50:48.214Z,14.40
2019-02-27T16:53:19.458Z,14.47
2019-02-27T16:55:48.430Z,14.00
2019-02-27T16:58:17.606Z,13.33
2019-02-27T17:00:47.251Z,12.93
2019-02-27T17:03:16.981Z,12.73
2019-02-27T17:05:46.184Z,14.13
2019-02-27T17:08:15.375Z,12.93
2019-02-27T17:10:44.592Z,13.10
2019-02-27T17:13:15.443Z,13.23
2019-02-27T17:15:44.814Z,14.17
2019-02-27T17:18:16.667Z,13.20
2019-02-27T17:20:46.577Z,13.67
2019-02-27T17:23:16.770Z,14.20
2019-02-27T17:25:45.596Z,13.67
2019-02-27T17:28:14.474Z,13.57
2019-02-27T17:30:43.936Z,13.53
2019-02-27T17:33:12.757Z,13.77
2019-02-27T17:35:41.870Z,13.50
2019-02-27T17:38:10.807Z,13.23
2019-02-27T17:40:41.561Z,13.77
2019-02-27T17:43:10.712Z,13.17
2019-02-27T17:45:39.811Z,11.97
2019-02-27T17:48:12.300Z,11.33
2019-02-27T17:50:40.200Z,11.60
2019-02-27T17:53:09.417Z,11.00
2019-02-27T17:55:41.592Z,11.40
2019-02-27T17:58:10.091Z,11.13
2019-02-27T18:00:41.356Z,10.97
2019-02-27T18:03:10.879Z,12.00
2019-02-27T18:05:39.753Z,12.27
2019-02-27T18:08:09.196Z,12.63
2019-02-27T18:10:39.155Z,11.87
2019-02-27T18:13:08.302Z,12.97
2019-02-27T18:15:37.360Z,11.57
2019-02-27T18:18:09.092Z,12.13
2019-02-27T18:20:37.376Z,13.10
2019-02-27T18:23:06.729Z,13.13
2019-02-27T18:25:41.093Z,13.30
2019-02-27T18:28:07.272Z,13.10
2019-02-27T18:30:37.268Z,13.73
2019-02-27T18:33:06.383Z,13.17
2019-02-27T18:35:35.820Z,14.17
2019-02-27T18:38:05.004Z,13.87
2019-02-27T18:40:34.282Z,12.83
2019-02-27T18:43:03.446Z,14.40
2019-02-27T18:45:32.883Z,14.67
2019-02-27T18:48:01.774Z,14.60
2019-02-27T18:50:30.895Z,13.73
2019-02-27T18:52:59.776Z,14.27
2019-02-27T18:55:30.703Z,14.43
2019-02-27T18:57:59.594Z,14.10
2019-02-27T19:00:28.790Z,14.10
2019-02-27T19:02:58.015Z,14.37
2019-02-27T19:05:27.251Z,14.10
2019-02-27T19:07:56.311Z,14.07
2019-02-27T19:10:25.923Z,13.70
2019-02-27T19:12:55.193Z,14.67
2019-02-27T19:15:24.320Z,15.03
2019-02-27T19:17:54.202Z,14.90
2019-02-27T19:20:25.465Z,14.83
2019-02-27T19:22:55.074Z,15.60
2019-02-27T19:25:24.882Z,14.60
2019-02-27T19:27:54.159Z,14.90
2019-02-27T19:30:23.222Z,14.90
2019-02-27T19:32:57.822Z,16.07
2019-02-27T19:35:23.637Z,14.37
2019-02-27T19:37:53.270Z,16.63
2019-02-27T19:40:23.642Z,15.43
2019-02-27T19:42:57.547Z,16.13
2019-02-27T19:45:27.122Z,15.60
2019-02-27T19:47:56.464Z,15.80
2019-02-27T19:50:25.662Z,15.17
2019-02-27T19:52:54.777Z,15.93
2019-02-27T19:55:26.758Z,15.43
2019-02-27T19:57:54.828Z,19.20
2019-02-27T20:00:25.325Z,16.20
2019-02-27T20:02:57.493Z,15.37
2019-02-27T20:05:25.276Z,17.07
2019-02-27T20:07:54.657Z,16.60
2019-02-27T20:10:28.916Z,16.07
2019-02-27T20:12:54.821Z,15.13
2019-02-27T20:15:24.186Z,15.67
2019-02-27T20:17:53.433Z,16.10
2019-02-27T20:20:22.801Z,16.27
2019-02-27T20:22:53.471Z,15.67
2019-02-27T20:25:23.507Z,15.53
2019-02-27T20:27:52.458Z,16.33
2019-02-27T20:30:21.846Z,15.30
2019-02-27T20:32:50.882Z,17.00
2019-02-27T20:35:20.756Z,15.33
2019-02-27T20:37:51.262Z,15.77
2019-02-27T20:40:20.285Z,15.43
2019-02-27T20:42:51.921Z,17.83
2019-02-27T20:45:20.817Z,16.20
2019-02-27T20:47:50.617Z,14.90
2019-02-27T20:50:34.145Z,16.73
2019-02-27T20:52:53.444Z,15.67
2019-02-27T20:55:23.517Z,16.00
2019-02-27T20:57:52.540Z,14.83
2019-02-27T21:00:22.247Z,16.57
2019-02-27T21:02:53.486Z,16.33
2019-02-27T21:05:22.789Z,16.20
2019-02-27T21:07:51.871Z,16.93
2019-02-27T21:10:21.879Z,15.97
2019-02-27T21:12:54.326Z,15.60
2019-02-27T21:15:21.823Z,15.40
2019-02-27T21:17:51.405Z,15.03
2019-02-27T21:20:20.729Z,15.37
2019-02-27T21:22:49.595Z,15.17
2019-02-27T21:25:19.104Z,15.17
2019-02-27T21:27:51.088Z,15.47
2019-02-27T21:30:27.187Z,13.83
2019-02-27T21:32:51.907Z,15.40
2019-02-27T21:35:22.219Z,16.80
2019-02-27T21:37:51.533Z,16.37
2019-02-27T21:40:20.980Z,16.83
2019-02-27T21:42:51.953Z,15.97
2019-02-27T21:45:21.705Z,15.77
2019-02-27T21:47:52.658Z,16.20
2019-02-27T21:50:21.913Z,16.73
2019-02-27T21:52:54.371Z,16.07
2019-02-27T21:55:23.676Z,16.37
2019-02-27T21:57:52.896Z,16.23
2019-02-27T22:00:23.593Z,16.10
2019-02-27T22:02:56.320Z,16.80
2019-02-27T22:05:27.490Z,16.77
2019-02-27T22:07:56.534Z,16.70
2019-02-27T22:10:25.848Z,17.47
2019-02-27T22:12:55.336Z,17.33
2019-02-27T22:15:30.026Z,16.27
2019-02-27T22:18:00.884Z,15.83
2019-02-27T22:20:29.892Z,17.23
2019-02-27T22:22:59.336Z,18.13
2019-02-27T22:25:31.076Z,16.50
2019-02-27T22:27:59.918Z,18.07
2019-02-27T22:30:31.771Z,16.97
2019-02-27T22:32:59.848Z,16.77
2019-02-27T22:35:30.529Z,16.60
2019-02-27T22:38:00.546Z,18.10
2019-02-27T22:40:29.437Z,17.83
2019-02-27T22:42:58.972Z,16.83
2019-02-27T22:45:28.048Z,17.03
2019-02-27T22:47:57.581Z,18.63
2019-02-27T22:50:26.574Z,15.93
2019-02-27T22:52:55.777Z,17.47
2019-02-27T22:55:24.969Z,19.10
2019-02-27T22:57:54.882Z,17.30
2019-02-27T23:00:56.720Z,18.00
2019-02-27T23:03:26.432Z,17.03
2019-02-27T23:05:56.081Z,18.27
2019-02-27T23:08:25.190Z,17.30
2019-02-27T23:10:54.460Z,18.50
2019-02-27T23:13:23.528Z,19.23
2019-02-27T23:15:58.028Z,18.40
2019-02-27T23:18:24.195Z,19.07
2019-02-27T23:20:55.410Z,19.27
2019-02-27T23:23:24.989Z,19.77
2019-02-27T23:25:54.401Z,19.30
2019-02-27T23:28:25.923Z,18.90
2019-02-27T23:30:55.187Z,20.60
2019-02-27T23:33:24.804Z,19.83
2019-02-27T23:35:54.028Z,19.83
2019-02-27T23:38:23.012Z,20.80
2019-02-27T23:40:52.157Z,19.90
2019-02-27T23:43:21.905Z,20.13
2019-02-27T23:45:51.204Z,20.37
2019-02-27T23:48:20.278Z,21.17
2019-02-27T23:50:49.119Z,21.37
2019-02-27T23:53:18.016Z,21.57
2019-02-27T23:55:47.929Z,20.23
2019-02-27T23:58:17.620Z,21.53
